Time;durP1;ratioP1;P1;durP2;ratioP2;P2;SDS_P1;SDS_P2;PMS_P1;PMS_P2;Temp;Humidity;BMP_temperature;BMP_pressure;BME280_temperature;BME280_humidity;BME280_pressure;Samples;Min_cycle;Max_cycle;Signal;HPM_P1;HPM_P2
2022/01/28 00:03:00;;;;;;;18.40;10.82;;;;;;;3.83;84.86;101332.81;4996618;28;20052;-63
2022/01/28 00:04:55;;;;;;;17.95;11.20;;;;;;;3.84;84.89;101325.22;5009912;28;20053;-62
2022/01/28 00:07:20;;;;;;;20.60;11.77;;;;;;;3.84;84.66;101326.91;5014008;28;20026;-63
2022/01/28 00:09:46;;;;;;;24.40;11.95;;;;;;;3.83;84.18;101331.13;5014238;28;20081;-63
2022/01/28 00:12:12;;;;;;;19.85;11.43;;;;;;;3.84;84.83;101340.59;5014224;28;20397;-63
2022/01/28 00:38:45;;;;;;;19.30;10.80;;;;;;;3.80;84.62;101392.53;5013121;28;20034;-63
2022/01/28 00:41:14;;;;;;;17.27;9.45;;;;;;;3.79;85.35;101396.75;5013000;28;20034;-64
2022/01/28 00:43:40;;;;;;;22.63;10.55;;;;;;;3.80;84.92;101405.34;4996237;28;20038;-63
2022/01/28 00:46:06;;;;;;;22.40;9.77;;;;;;;3.79;84.97;101401.88;5012563;28;20052;-63
2022/01/28 00:48:32;;;;;;;14.82;10.30;;;;;;;3.78;84.26;101407.78;5012498;28;20034;-63
2022/01/28 00:50:57;;;;;;;19.60;9.88;;;;;;;3.79;85.23;101406.13;5012492;28;20378;-62
2022/01/28 00:53:23;;;;;;;16.85;9.80;;;;;;;3.80;84.83;101413.03;5013137;28;20061;-63
2022/01/28 00:55:48;;;;;;;18.67;10.63;;;;;;;3.80;84.42;101408.78;5012675;28;20507;-63
2022/01/28 00:58:14;;;;;;;21.90;9.75;;;;;;;3.79;84.97;101424.94;5013566;28;20042;-63
2022/01/28 01:00:40;;;;;;;20.15;8.65;;;;;;;3.80;84.60;101425.84;5013595;28;20367;-63
2022/01/28 01:03:05;;;;;;;35.67;11.30;;;;;;;3.79;85.08;101422.38;5012221;28;20046;-63
2022/01/28 01:05:32;;;;;;;19.85;10.57;;;;;;;3.79;84.83;101424.09;5013453;28;20047;-63
2022/01/28 01:07:59;;;;;;;18.40;10.45;;;;;;;3.80;84.93;101424.16;5012160;28;20038;-63
2022/01/28 01:10:26;;;;;;;15.80;9.23;;;;;;;3.79;84.67;101424.09;5012645;28;20093;-63
2022/01/28 01:12:52;;;;;;;17.00;10.75;;;;;;;3.79;84.98;101422.38;4996190;28;20041;-63
2022/01/28 01:15:21;;;;;;;14.15;8.65;;;;;;;3.78;84.36;101420.59;5013353;28;20034;-64
2022/01/28 01:20:50;;;;;;;19.08;10.27;;;;;;;3.79;84.69;101427.53;5013005;28;20042;-63
2022/01/28 01:23:09;;;;;;;20.52;10.15;;;;;;;3.77;84.63;101429.09;5011963;28;20038;-63
2022/01/28 01:28:11;;;;;;;15.70;8.82;;;;;;;3.78;84.35;101440.25;5013412;28;20037;-63
2022/01/28 01:30:42;;;;;;;14.52;9.50;;;;;;;3.78;84.92;101446.25;4995889;28;20096;-63
2022/01/28 01:33:08;;;;;;;17.30;10.20;;;;;;;3.78;84.27;101448.81;5014187;28;20026;-63
2022/01/28 01:35:35;;;;;;;18.67;8.63;;;;;;;3.77;84.81;101452.16;4999532;28;20033;-63
2022/01/28 01:38:01;;;;;;;15.27;9.52;;;;;;;3.77;85.19;101457.31;5015702;28;20042;-63
2022/01/28 01:40:33;;;;;;;14.95;8.13;;;;;;;3.76;84.63;101458.09;4999592;28;20076;-63
2022/01/28 01:43:14;;;;;;;15.88;8.45;;;;;;;3.78;84.85;101453.06;4999355;28;20448;-63
2022/01/28 01:46:01;;;;;;;16.25;8.02;;;;;;;3.76;84.50;101454.66;5016884;28;20493;-63
2022/01/28 01:53:53;;;;;;;14.88;8.13;;;;;;;3.74;84.62;101467.34;5015850;28;20038;-64
2022/01/28 01:56:20;;;;;;;16.20;8.73;;;;;;;3.75;84.77;101463.13;5016489;28;20052;-64
2022/01/28 01:58:46;;;;;;;11.60;7.07;;;;;;;3.74;84.62;101463.91;4999023;28;20034;-64
2022/01/28 02:01:12;;;;;;;20.85;8.50;;;;;;;3.74;84.63;101467.34;5016629;28;20037;-64
2022/01/28 02:03:38;;;;;;;10.38;7.18;;;;;;;3.76;84.54;101482.84;4982775;28;20405;-64
2022/01/28 02:06:03;;;;;;;14.95;6.85;;;;;;;3.76;85.01;101488.00;5016393;28;20041;-63
2022/01/28 02:08:34;;;;;;;19.88;7.75;;;;;;;3.76;84.29;101493.13;5016682;28;20033;-63
2022/01/28 02:11:00;;;;;;;12.00;6.70;;;;;;;3.76;85.18;101493.13;4982852;28;20034;-64
2022/01/28 02:13:28;;;;;;;12.45;8.43;;;;;;;3.76;84.39;101488.00;4982673;28;20097;-64
2022/01/28 02:15:54;;;;;;;15.15;7.65;;;;;;;3.76;84.68;101485.44;5016562;28;20091;-64
2022/01/28 02:18:21;;;;;;;13.77;7.30;;;;;;;3.75;84.94;101481.06;4982758;28;20038;-64
2022/01/28 02:20:50;;;;;;;13.35;6.93;;;;;;;3.76;85.00;101490.56;4982436;28;20038;-64
2022/01/28 02:23:16;;;;;;;14.98;6.85;;;;;;;3.75;84.54;101493.91;4982433;28;20034;-64
2022/01/28 02:25:42;;;;;;;11.98;6.50;;;;;;;3.76;84.29;101504.25;4998480;28;20052;-63
2022/01/28 02:28:11;;;;;;;14.98;7.00;;;;;;;3.76;84.74;101505.94;5016389;28;20508;-64
2022/01/28 02:30:36;;;;;;;17.58;7.95;;;;;;;3.77;84.64;101505.16;4998857;28;20488;-64
2022/01/28 02:33:14;;;;;;;13.88;7.93;;;;;;;3.77;84.64;101500.03;5016376;28;20026;-64
2022/01/28 02:35:42;;;;;;;10.52;6.93;;;;;;;3.77;84.83;101512.84;4982498;28;20405;-64
2022/01/28 02:38:14;;;;;;;10.13;6.47;;;;;;;3.77;84.40;101523.09;5015763;28;20042;-64
2022/01/28 02:40:43;;;;;;;10.98;7.07;;;;;;;3.76;84.78;101511.94;5016491;28;20120;-64
2022/01/28 02:43:17;;;;;;;10.90;6.07;;;;;;;3.77;85.22;101518.84;4998405;28;20030;-64
2022/01/28 02:45:45;;;;;;;12.13;6.95;;;;;;;3.77;84.36;101525.66;5015343;28;20034;-63
2022/01/28 02:48:18;;;;;;;14.15;6.53;;;;;;;3.75;84.80;101507.59;5015970;28;20124;-63
2022/01/28 02:51:00;;;;;;;9.10;6.63;;;;;;;3.76;84.82;101513.63;5015804;28;20084;-63
2022/01/28 02:53:39;;;;;;;12.25;6.95;;;;;;;3.75;84.70;101516.97;4982231;28;20041;-63
2022/01/28 02:56:14;;;;;;;12.80;6.18;;;;;;;3.75;84.62;101516.97;5015650;28;20041;-63
2022/01/28 02:58:40;;;;;;;13.68;6.90;;;;;;;3.75;84.39;101527.25;4982302;28;20034;-63
2022/01/28 03:01:06;;;;;;;13.50;7.13;;;;;;;3.74;85.24;101528.03;4997865;28;20440;-63
2022/01/28 03:03:32;;;;;;;11.48;5.90;;;;;;;3.74;84.87;101517.75;4997388;28;20117;-63
2022/01/28 03:05:58;;;;;;;10.43;5.63;;;;;;;3.74;84.63;101521.19;5014314;28;20081;-63
2022/01/28 03:08:27;;;;;;;12.90;6.03;;;;;;;3.74;84.68;101520.31;5015301;28;20557;-63
2022/01/28 03:13:32;;;;;;;9.40;5.60;;;;;;;3.75;84.88;101527.25;5015036;28;20034;-63
2022/01/28 03:16:14;;;;;;;11.10;6.22;;;;;;;3.74;84.90;101528.03;4998045;28;20069;-63
2022/01/28 03:18:53;;;;;;;11.48;6.78;;;;;;;3.73;84.89;101524.59;5014169;28;20497;-63
2022/01/28 03:23:48;;;;;;;7.10;5.25;;;;;;;3.72;84.91;101517.69;5013801;28;20037;-63
2022/01/28 03:26:15;;;;;;;10.80;6.25;;;;;;;3.72;85.08;101517.69;4997797;28;20503;-63
2022/01/28 03:28:41;;;;;;;8.75;4.65;;;;;;;3.72;84.34;101522.81;5015009;28;20075;-63
2022/01/28 03:31:06;;;;;;;9.40;5.35;;;;;;;3.72;84.85;101537.28;4997391;28;20075;-63
2022/01/28 03:33:32;;;;;;;11.68;6.55;;;;;;;3.72;84.51;101538.19;5014914;28;20041;-64
2022/01/28 03:35:57;;;;;;;10.45;5.82;;;;;;;3.73;84.56;101544.19;5014825;28;20034;-63
2022/01/28 03:38:23;;;;;;;9.70;5.20;;;;;;;3.72;84.61;101537.28;5014830;28;20041;-63
2022/01/28 03:40:50;;;;;;;11.98;6.20;;;;;;;3.72;84.86;101529.59;5014780;28;20040;-63
2022/01/28 03:43:16;;;;;;;10.48;5.50;;;;;;;3.71;84.60;101525.25;4997244;28;20121;-64
2022/01/28 03:45:41;;;;;;;10.20;5.45;;;;;;;3.71;84.94;101528.72;5013438;28;20188;-63
2022/01/28 03:48:07;;;;;;;12.85;6.55;;;;;;;3.71;84.79;101530.38;5013495;28;20572;-63
2022/01/28 03:50:34;;;;;;;6.70;5.72;;;;;;;3.72;84.93;101530.50;5013398;28;20042;-63
2022/01/28 03:53:06;;;;;;;11.18;5.88;;;;;;;3.71;84.71;101533.84;5013626;28;20056;-63
2022/01/28 03:55:32;;;;;;;9.43;6.05;;;;;;;3.71;84.32;101538.06;5014055;28;20042;-63
2022/01/28 03:57:57;;;;;;;12.65;6.20;;;;;;;3.71;84.61;101541.53;5014435;28;20113;-63
2022/01/28 04:00:26;;;;;;;7.22;5.03;;;;;;;3.72;84.94;101558.72;5013158;28;20133;-63
2022/01/28 04:03:03;;;;;;;12.05;6.18;;;;;;;3.72;84.74;101553.59;4996638;28;20046;-62
2022/01/28 04:13:25;;;;;;;12.25;6.13;;;;;;;3.72;84.99;101547.53;5014336;28;20117;-63
2022/01/28 04:16:14;;;;;;;9.55;5.60;;;;;;;3.72;85.04;101552.66;5013147;28;20038;-64
2022/01/28 04:18:36;;;;;;;8.15;5.90;;;;;;;3.71;84.67;101556.94;5014002;28;20046;-63
2022/01/28 04:21:01;;;;;;;11.70;6.22;;;;;;;3.71;85.26;101567.19;5014411;28;20116;-63
2022/01/28 04:23:26;;;;;;;12.57;5.82;;;;;;;3.71;84.94;101562.06;5014129;28;20088;-64
2022/01/28 04:25:52;;;;;;;8.80;5.90;;;;;;;3.73;84.31;101567.28;5013928;28;20408;-64
2022/01/28 04:28:17;;;;;;;9.32;5.95;;;;;;;3.72;84.62;101557.81;5013921;28;20065;-63
2022/01/28 04:30:42;;;;;;;10.18;6.53;;;;;;;3.72;85.29;101562.94;5014013;28;20121;-63
2022/01/28 04:33:08;;;;;;;11.13;7.35;;;;;;;3.71;84.65;101562.06;5014059;28;20034;-63
2022/01/28 04:35:34;;;;;;;10.32;6.95;;;;;;;3.72;84.85;101568.06;5014196;28;20026;-63
2022/01/28 04:40:29;;;;;;;9.75;6.50;;;;;;;3.70;84.66;101573.09;5013915;28;20040;-62
2022/01/28 04:43:06;;;;;;;15.63;7.78;;;;;;;3.71;84.97;101566.28;5013807;28;20133;-63
2022/01/28 04:45:42;;;;;;;9.05;6.65;;;;;;;3.70;84.39;101569.63;5013774;28;20060;-63
2022/01/28 04:55:58;;;;;;;11.82;7.10;;;;;;;3.68;84.92;101576.31;5013079;28;20146;-63
2022/01/28 05:27:38;;;;;;;13.23;6.80;;;;;;;3.66;84.63;101589.03;4997817;28;20130;-64
2022/01/28 05:30:06;;;;;;;15.75;8.23;;;;;;;3.63;84.69;101594.88;4997786;28;20478;-63
2022/01/28 05:32:31;;;;;;;11.35;7.65;;;;;;;3.64;84.75;101599.22;4980175;28;20482;-64
2022/01/28 05:34:57;;;;;;;13.95;7.53;;;;;;;3.65;85.14;101607.78;4997445;28;20073;-63
2022/01/28 05:37:22;;;;;;;12.02;8.93;;;;;;;3.64;84.66;101609.47;4979890;28;20030;-63
2022/01/28 05:39:47;;;;;;;14.02;9.00;;;;;;;3.66;84.74;101612.13;4997882;28;20044;-63
2022/01/28 05:42:13;;;;;;;12.75;7.75;;;;;;;3.66;85.30;101617.25;4980079;28;20041;-62
2022/01/28 05:44:38;;;;;;;15.35;8.50;;;;;;;3.64;84.70;101611.13;4997316;28;20034;-63
2022/01/28 05:47:04;;;;;;;17.08;8.40;;;;;;;3.64;84.95;101622.28;4963691;28;20038;-63
2022/01/28 05:49:30;;;;;;;12.45;8.63;;;;;;;3.65;85.12;101618.94;4997522;28;20034;-63
2022/01/28 05:51:56;;;;;;;14.30;7.47;;;;;;;3.66;85.10;101615.56;4963562;28;20093;-63
2022/01/28 05:54:21;;;;;;;11.38;8.38;;;;;;;3.65;85.02;101618.03;4979857;28;20030;-63
2022/01/28 05:56:47;;;;;;;11.30;7.72;;;;;;;3.65;84.89;101624.06;4997128;28;20041;-63
2022/01/28 05:59:12;;;;;;;11.85;7.40;;;;;;;3.66;84.58;101622.38;4979678;28;20069;-63
2022/01/28 06:01:38;;;;;;;11.05;8.90;;;;;;;3.65;84.90;101625.72;5000896;28;20041;-62
2022/01/28 06:04:03;;;;;;;13.80;8.23;;;;;;;3.64;84.83;101632.53;4999092;28;20041;-62
2022/01/28 06:06:31;;;;;;;18.92;9.85;;;;;;;3.64;84.54;101640.25;5016223;28;20464;-63
2022/01/28 06:08:56;;;;;;;12.38;8.65;;;;;;;3.64;84.79;101640.25;4999040;28;20030;-63
2022/01/28 06:11:23;;;;;;;12.40;8.85;;;;;;;3.65;84.46;101643.69;5016484;28;20030;-63
2022/01/28 06:13:50;;;;;;;11.43;8.48;;;;;;;3.65;84.45;101641.13;4982924;28;20034;-63
2022/01/28 06:16:17;;;;;;;12.13;8.40;;;;;;;3.65;84.86;101648.81;4982622;28;20074;-63
2022/01/28 06:18:43;;;;;;;14.68;9.05;;;;;;;3.63;84.74;101653.84;4981596;28;20037;-64
2022/01/28 06:21:09;;;;;;;13.30;8.77;;;;;;;3.65;84.81;101656.50;4982417;28;20134;-63
2022/01/28 06:23:35;;;;;;;11.88;7.60;;;;;;;3.64;84.48;101663.31;4998871;28;20136;-63
2022/01/28 06:26:02;;;;;;;16.83;10.07;;;;;;;3.64;85.14;101667.53;4982281;28;20392;-63
2022/01/28 06:28:34;;;;;;;15.48;9.10;;;;;;;3.63;84.94;101661.53;5016002;28;20073;-63
2022/01/28 06:31:02;;;;;;;12.70;9.30;;;;;;;3.62;85.07;101671.66;4982380;28;20034;-62
2022/01/28 06:33:35;;;;;;;13.15;10.02;;;;;;;3.63;84.52;101678.56;5016159;28;20068;-63
2022/01/28 06:36:03;;;;;;;12.93;9.50;;;;;;;3.63;84.61;101670.88;4998783;28;20030;-63
2022/01/28 06:38:29;;;;;;;14.45;9.45;;;;;;;3.62;84.44;101675.13;5015979;28;20045;-62
2022/01/28 06:40:55;;;;;;;15.38;9.55;;;;;;;3.61;84.91;101686.16;4998476;28;20497;-64
2022/01/28 06:43:20;;;;;;;15.80;10.60;;;;;;;3.61;84.47;101686.16;5016025;28;20478;-64
2022/01/28 06:45:48;;;;;;;19.13;9.80;;;;;;;3.61;84.55;101677.56;5015778;28;20033;-64
2022/01/28 06:48:16;;;;;;;13.10;8.80;;;;;;;3.61;84.94;101686.16;5016027;28;20132;-63
2022/01/28 06:50:43;;;;;;;16.08;9.32;;;;;;;3.60;84.59;101692.09;4998001;28;20044;-63
2022/01/28 06:53:13;;;;;;;16.25;9.55;;;;;;;3.61;84.79;101700.66;5015702;28;20176;-63
2022/01/28 06:55:41;;;;;;;17.95;10.18;;;;;;;3.61;84.64;101703.22;4998506;28;20037;-63
2022/01/28 06:58:10;;;;;;;16.50;9.35;;;;;;;3.60;84.70;101711.69;4998532;28;20374;-63
2022/01/28 07:00:40;;;;;;;15.73;10.50;;;;;;;3.60;84.62;101706.56;4997861;28;20088;-63
2022/01/28 07:03:07;;;;;;;13.90;10.43;;;;;;;3.60;84.85;101714.25;5009706;28;20104;-65
2022/01/28 07:05:32;;;;;;;17.55;9.90;;;;;;;3.58;84.54;101709.03;5015367;28;20562;-63
2022/01/28 07:08:00;;;;;;;16.52;10.02;;;;;;;3.57;84.32;101708.94;5015411;28;20116;-63
2022/01/28 07:10:29;;;;;;;14.38;9.05;;;;;;;3.59;84.95;101709.91;5014013;28;20034;-63
2022/01/28 07:12:55;;;;;;;15.48;9.95;;;;;;;3.60;85.19;101721.94;5014102;28;20072;-63
2022/01/28 07:15:25;;;;;;;17.30;10.40;;;;;;;3.58;84.75;101719.28;5015293;28;20073;-63
2022/01/28 07:18:03;;;;;;;13.93;9.65;;;;;;;3.58;85.08;101728.66;4997815;28;20438;-63
2022/01/28 07:20:30;;;;;;;18.48;10.63;;;;;;;3.57;84.29;101727.75;5014232;28;20499;-63
2022/01/28 07:22:56;;;;;;;16.40;10.85;;;;;;;3.56;84.41;101741.34;5015152;28;20125;-63
2022/01/28 07:25:22;;;;;;;15.77;11.45;;;;;;;3.56;85.27;101743.91;5013948;28;20041;-63
2022/01/28 07:27:50;;;;;;;19.02;11.38;;;;;;;3.56;84.78;101759.31;5013760;28;20038;-63
2022/01/28 07:30:19;;;;;;;16.98;11.43;;;;;;;3.56;85.25;101750.72;5014898;28;20100;-63
2022/01/28 07:32:49;;;;;;;14.60;10.55;;;;;;;3.56;84.64;101751.63;5013549;28;20030;-63
2022/01/28 07:35:15;;;;;;;13.73;10.95;;;;;;;3.57;84.49;101762.78;5015284;28;20077;-63
2022/01/28 07:37:41;;;;;;;14.63;10.60;;;;;;;3.55;85.00;101762.66;5014872;28;20076;-63
2022/01/28 07:40:09;;;;;;;15.93;9.88;;;;;;;3.55;84.81;101770.34;5013643;28;20537;-63
2022/01/28 07:42:41;;;;;;;18.15;11.43;;;;;;;3.55;84.64;101778.03;4997247;28;20048;-63
2022/01/28 07:45:13;;;;;;;14.50;9.82;;;;;;;3.55;84.89;101769.47;4997664;28;20075;-63
2022/01/28 07:47:43;;;;;;;17.05;10.70;;;;;;;3.55;84.88;101775.47;5014472;28;20034;-62
2022/01/28 07:50:14;;;;;;;13.77;10.73;;;;;;;3.55;85.09;101765.22;5013716;28;20040;-63
2022/01/28 07:52:43;;;;;;;18.35;10.75;;;;;;;3.55;85.23;101762.66;5013499;28;20049;-63
2022/01/28 07:55:13;;;;;;;16.95;9.85;;;;;;;3.55;84.70;101778.03;4996888;28;20137;-64
2022/01/28 07:57:40;;;;;;;18.90;11.40;;;;;;;3.54;84.80;101773.69;5013099;28;20630;-63
2022/01/28 08:00:08;;;;;;;18.30;11.23;;;;;;;3.54;84.61;101776.25;5013182;28;20091;-63
2022/01/28 08:02:36;;;;;;;20.35;10.73;;;;;;;3.54;84.80;101773.69;4996575;28;20050;-63
2022/01/28 08:05:07;;;;;;;13.30;10.32;;;;;;;3.54;85.31;101783.94;5014460;28;20095;-63
2022/01/28 08:07:32;;;;;;;17.10;11.88;;;;;;;3.54;84.51;101781.38;4996711;28;20030;-63
2022/01/28 08:09:58;;;;;;;17.10;10.85;;;;;;;3.54;85.02;101785.63;5014235;28;20037;-63
2022/01/28 08:12:26;;;;;;;17.35;10.98;;;;;;;3.54;84.78;101785.63;5014485;28;20492;-63
2022/01/28 08:14:54;;;;;;;17.48;10.88;;;;;;;3.53;84.85;101786.41;5014289;28;20078;-63
2022/01/28 08:17:19;;;;;;;18.50;11.95;;;;;;;3.53;84.94;101794.09;4996871;28;20123;-63
2022/01/28 08:19:45;;;;;;;18.50;10.95;;;;;;;3.52;85.05;101790.63;5013101;28;20066;-63
2022/01/28 08:22:10;;;;;;;17.77;12.02;;;;;;;3.51;84.86;101786.28;5012925;28;20030;-63
2022/01/28 08:24:36;;;;;;;15.55;10.57;;;;;;;3.50;84.41;101787.97;5014073;28;20564;-63
2022/01/28 08:27:02;;;;;;;18.50;11.60;;;;;;;3.51;84.88;101793.97;5012820;28;20038;-63
2022/01/28 08:29:32;;;;;;;16.60;11.82;;;;;;;3.50;84.54;101805.03;5014001;28;20124;-63
2022/01/28 08:31:58;;;;;;;20.40;12.85;;;;;;;3.49;84.76;101799.00;4996677;28;20037;-63
2022/01/28 08:34:23;;;;;;;20.83;11.93;;;;;;;3.51;84.98;101811.91;5012984;28;20402;-63
2022/01/28 08:36:53;;;;;;;21.90;12.27;;;;;;;3.49;85.03;101808.38;5013901;28;20045;-63
2022/01/28 08:39:21;;;;;;;21.02;12.52;;;;;;;3.49;84.69;101811.81;5012727;28;20040;-64
2022/01/28 08:41:47;;;;;;;18.92;12.75;;;;;;;3.49;84.69;101814.38;5013870;28;20037;-63
2022/01/28 08:44:16;;;;;;;16.95;11.95;;;;;;;3.49;84.80;101823.75;4996791;28;20037;-63
2022/01/28 08:46:42;;;;;;;17.83;12.55;;;;;;;3.48;85.03;101827.97;4996099;28;20046;-63
2022/01/28 08:49:07;;;;;;;20.65;12.75;;;;;;;3.49;84.46;101832.31;5013716;28;20044;-63
2022/01/28 08:51:35;;;;;;;16.83;11.90;;;;;;;3.49;85.13;101844.25;5013765;28;20095;-63
2022/01/28 08:54:01;;;;;;;19.73;13.70;;;;;;;3.49;84.83;101846.81;4996322;28;20038;-63
2022/01/28 08:56:26;;;;;;;22.60;14.75;;;;;;;3.48;85.27;101852.72;4996366;28;20103;-63
2022/01/28 08:58:54;;;;;;;20.40;13.48;;;;;;;3.49;84.60;101854.50;5013845;28;20041;-62
2022/01/28 09:01:20;;;;;;;20.95;12.82;;;;;;;3.48;84.96;101858.72;5013516;28;20620;-63
2022/01/28 09:03:48;;;;;;;21.98;15.23;;;;;;;3.49;84.74;101863.09;4979879;28;20062;-63
2022/01/28 09:06:14;;;;;;;22.70;14.23;;;;;;;3.47;84.55;101863.75;5013559;28;20135;-63
2022/01/28 09:08:44;;;;;;;20.23;13.82;;;;;;;3.46;85.12;101864.53;5013328;28;20509;-63
2022/01/28 09:12:30;;;;;;;21.52;15.30;;;;;;;3.46;84.89;101867.97;4996500;28;20112;-63
2022/01/28 09:14:07;;;;;;;22.98;14.48;;;;;;;3.46;84.65;101862.84;5000122;28;20074;-63
2022/01/28 09:16:35;;;;;;;24.92;15.15;;;;;;;3.46;84.56;101860.28;4979742;28;20120;-64
2022/01/28 09:19:03;;;;;;;20.33;15.63;;;;;;;3.46;84.84;101860.28;4996811;28;20552;-64
2022/01/28 09:21:31;;;;;;;20.05;15.98;;;;;;;3.45;84.59;101863.63;5013862;28;20128;-64
2022/01/28 09:23:59;;;;;;;21.98;16.08;;;;;;;3.45;84.70;101860.19;4979648;28;20512;-64
2022/01/28 09:26:24;;;;;;;19.23;15.05;;;;;;;3.43;84.77;101860.06;4979548;28;20398;-63
2022/01/28 09:28:50;;;;;;;25.42;16.92;;;;;;;3.43;84.89;101862.63;4995886;28;20037;-64
2022/01/28 09:31:18;;;;;;;20.63;16.38;;;;;;;3.43;84.86;101867.75;5013446;28;20038;-66
2022/01/28 09:33:47;;;;;;;25.58;15.82;;;;;;;3.43;84.95;101860.06;5013334;28;20048;-64
2022/01/28 09:36:15;;;;;;;23.13;16.35;;;;;;;3.42;84.77;101858.31;5013152;28;20042;-64
2022/01/28 09:38:44;;;;;;;21.75;16.50;;;;;;;3.43;84.99;101856.63;5013188;28;20084;-64
2022/01/28 09:41:10;;;;;;;20.73;15.73;;;;;;;3.43;84.33;101861.75;5013389;28;20128;-64
2022/01/28 09:43:36;;;;;;;21.65;16.38;;;;;;;3.43;84.94;101852.38;5013208;28;20061;-63
2022/01/28 09:46:05;;;;;;;21.70;16.35;;;;;;;3.43;84.67;101851.50;5013034;28;20069;-63
2022/01/28 09:48:33;;;;;;;26.35;17.17;;;;;;;3.43;85.09;101852.38;4995512;28;20057;-63
2022/01/28 09:51:00;;;;;;;21.50;16.08;;;;;;;3.43;85.38;101852.38;5013435;28;20038;-64
2022/01/28 09:53:31;;;;;;;21.73;16.67;;;;;;;3.45;84.92;101860.19;4995862;28;20125;-64
2022/01/28 09:56:00;;;;;;;23.17;16.98;;;;;;;3.45;85.09;101865.31;4982917;28;20124;-64
2022/01/28 09:58:25;;;;;;;23.30;16.75;;;;;;;3.45;84.71;101870.44;4982965;28;20034;-63
2022/01/28 10:00:51;;;;;;;26.15;18.58;;;;;;;3.43;84.84;101864.31;5016606;28;20088;-63
2022/01/28 10:03:27;;;;;;;23.38;17.02;;;;;;;3.44;85.13;101864.41;5012770;28;20053;-63
2022/01/28 10:06:02;;;;;;;26.88;18.10;;;;;;;3.43;85.03;101867.75;5016622;28;20034;-63
2022/01/28 10:08:30;;;;;;;27.25;18.33;;;;;;;3.44;84.65;101866.09;4999212;28;20041;-64
2022/01/28 10:11:05;;;;;;;22.50;16.73;;;;;;;3.45;84.36;101873.88;4998936;28;20489;-63
2022/01/28 10:13:52;;;;;;;30.65;19.67;;;;;;;3.45;84.67;101871.31;5015719;28;20092;-63
2022/01/28 10:16:23;;;;;;;29.05;19.33;;;;;;;3.44;84.99;101869.53;5016890;28;20493;-63
2022/01/28 10:18:53;;;;;;;26.20;18.35;;;;;;;3.46;85.31;101870.53;5015191;28;20393;-63
2022/01/28 10:21:52;;;;;;;29.90;20.00;;;;;;;3.45;84.77;101879.00;5016351;28;20048;-63
2022/01/28 10:24:27;;;;;;;30.45;20.33;;;;;;;3.45;84.68;101880.69;4977326;28;20042;-63
2022/01/28 10:26:53;;;;;;;;;;;;;;;3.45;84.79;101883.25;5016771;28;20125;-63
2022/01/28 10:29:22;;;;;;;31.15;19.83;;;;;;;3.45;84.91;101880.69;5015026;28;19917;-63
2022/01/28 10:31:49;;;;;;;26.38;19.05;;;;;;;3.43;84.84;101878.00;5016105;28;20048;-63
2022/01/28 10:34:21;;;;;;;30.35;20.27;;;;;;;3.45;84.69;101866.19;5016001;28;20042;-63
2022/01/28 10:36:47;;;;;;;31.15;19.95;;;;;;;3.46;84.75;101867.97;4998882;28;20454;-63
2022/01/28 10:39:19;;;;;;;34.78;20.88;;;;;;;3.46;84.57;101867.09;4998360;28;20065;-63
2022/01/28 10:41:58;;;;;;;32.33;21.35;;;;;;;3.46;84.89;101865.41;5014765;28;20038;-63
2022/01/28 10:44:26;;;;;;;35.47;21.52;;;;;;;3.45;85.13;101863.63;4998472;28;20026;-64
2022/01/28 10:46:55;;;;;;;34.88;21.17;;;;;;;3.47;84.79;101867.19;5014507;28;20046;-64
2022/01/28 10:49:27;;;;;;;37.50;21.95;;;;;;;3.47;84.79;101863.75;5014777;28;20425;-63
2022/01/28 10:51:53;;;;;;;35.17;23.70;;;;;;;3.46;84.87;101859.41;5015539;28;20121;-64
2022/01/28 10:54:22;;;;;;;35.83;23.13;;;;;;;3.47;85.12;101867.19;5016053;28;20129;-64
2022/01/28 10:57:00;;;;;;;40.13;24.00;;;;;;;3.49;84.99;101865.66;5014771;28;20042;-64
2022/01/28 10:59:31;;;;;;;37.40;23.38;;;;;;;3.49;85.29;101860.53;4998291;28;20425;-63
2022/01/28 11:01:57;;;;;;;32.83;21.35;;;;;;;3.50;84.63;101869.13;5014343;28;20091;-63
2022/01/28 11:04:23;;;;;;;35.85;25.00;;;;;;;3.52;84.85;101867.53;4997773;28;20037;-63
2022/01/28 11:06:52;;;;;;;38.40;22.73;;;;;;;3.52;85.29;101864.97;4997564;28;20144;-63
2022/01/28 11:09:20;;;;;;;40.28;23.85;;;;;;;3.53;84.88;101869.31;4997846;28;20474;-63
2022/01/28 11:11:46;;;;;;;38.03;22.95;;;;;;;3.56;84.27;101871.25;5015358;28;20047;-63
2022/01/28 11:14:12;;;;;;;38.40;23.88;;;;;;;3.56;85.24;101872.13;5015546;28;20037;-63
2022/01/28 11:16:38;;;;;;;36.50;24.70;;;;;;;3.60;85.11;101865.53;5015482;28;20038;-63
2022/01/28 11:19:05;;;;;;;37.15;24.25;;;;;;;3.60;84.82;101858.75;4997747;28;20041;-63
2022/01/28 11:21:48;;;;;;;37.80;22.80;;;;;;;3.62;85.32;101866.53;4997863;28;20045;-63
2022/01/28 11:24:22;;;;;;;38.42;22.48;;;;;;;3.62;85.14;101866.53;5013950;28;20061;-63
2022/01/28 11:27:00;;;;;;;43.78;23.92;;;;;;;3.63;84.84;101876.03;5014854;28;20124;-63
2022/01/28 11:29:28;;;;;;;37.97;24.33;;;;;;;3.63;84.85;101860.63;4997973;28;20034;-63
2022/01/28 11:32:08;;;;;;;36.83;23.70;;;;;;;3.63;84.47;101868.34;4997300;28;20044;-63
2022/01/28 11:34:34;;;;;;;35.42;22.92;;;;;;;3.64;85.14;101857.28;5015066;28;20030;-64
2022/01/28 11:37:27;;;;;;;39.13;22.95;;;;;;;3.65;84.84;101853.97;5014601;28;20050;-63
2022/01/28 11:40:09;;;;;;;37.88;24.63;;;;;;;3.65;84.83;101848.81;5007218;28;20046;-63
2022/01/28 11:42:34;;;;;;;44.95;26.42;;;;;;;3.65;84.58;101848.81;4997315;28;20112;-63
2022/01/28 11:45:03;;;;;;;43.70;24.77;;;;;;;3.66;84.84;101840.34;5014723;28;20490;-63
2022/01/28 11:47:35;;;;;;;39.53;23.92;;;;;;;3.66;85.15;101841.22;4996946;28;20042;-63
2022/01/28 11:50:17;;;;;;;42.05;24.33;;;;;;;3.68;84.83;101849.06;5014053;28;20034;-63
2022/01/28 11:52:52;;;;;;;39.83;25.08;;;;;;;3.68;84.79;101849.06;4997030;28;20044;-63
2022/01/28 11:55:17;;;;;;;36.33;24.15;;;;;;;3.67;85.20;101837.00;5013566;28;20033;-63
2022/01/28 11:57:51;;;;;;;35.50;22.90;;;;;;;3.68;84.57;101837.88;5014510;28;20049;-63
2022/01/28 12:00:23;;;;;;;;;;;;;;;3.65;84.44;101831.78;4997767;28;20128;-63
2022/01/28 12:02:51;;;;;;;39.38;22.63;;;;;;;3.65;84.88;101829.22;5012868;28;19921;-63
2022/01/28 12:05:46;;;;;;;40.17;22.83;;;;;;;3.65;84.51;101823.19;4996811;28;20038;-63
2022/01/28 12:08:13;;;;;;;40.65;24.05;;;;;;;3.65;85.02;101834.34;4996506;28;20057;-63
2022/01/28 12:10:44;;;;;;;37.63;23.80;;;;;;;3.65;84.76;101821.53;4996714;28;20038;-63
2022/01/28 12:13:16;;;;;;;36.88;24.17;;;;;;;3.67;84.47;101826.75;5013359;28;20038;-64
2022/01/28 12:16:03;;;;;;;42.97;24.00;;;;;;;3.67;84.55;101819.06;5014560;28;20065;-64
2022/01/28 12:18:49;;;;;;;39.28;23.10;;;;;;;3.66;84.81;101818.16;4996143;28;20034;-64
2022/01/28 12:21:17;;;;;;;41.45;24.38;;;;;;;3.66;84.88;101807.88;5012952;28;20367;-63
2022/01/28 12:23:48;;;;;;;39.50;24.38;;;;;;;3.67;85.36;101806.25;4996468;28;20038;-63
2022/01/28 12:26:17;;;;;;;39.75;24.75;;;;;;;3.69;84.95;101793.50;4996943;28;20084;-63
2022/01/28 12:28:44;;;;;;;51.03;25.63;;;;;;;3.68;85.13;101797.75;4996442;28;20516;-63
2022/01/28 12:31:28;;;;;;;43.15;24.45;;;;;;;3.67;84.71;101801.09;4996367;28;20056;-63
2022/01/28 12:34:02;;;;;;;46.55;26.02;;;;;;;3.69;84.42;101801.22;5012922;28;20057;-63
2022/01/28 12:36:32;;;;;;;37.85;23.50;;;;;;;3.68;85.22;101799.41;5013019;28;20045;-63
2022/01/28 12:41:40;;;;;;;39.05;24.60;;;;;;;3.69;85.14;101802.13;5012748;28;20030;-63
2022/01/28 12:44:09;;;;;;;40.67;24.98;;;;;;;3.69;84.76;101807.25;4996834;28;20402;-63
2022/01/28 12:46:38;;;;;;;42.28;25.02;;;;;;;3.69;84.32;101803.78;4996174;28;20030;-63
2022/01/28 12:49:03;;;;;;;44.50;26.73;;;;;;;3.70;84.45;101815.81;5013986;28;20096;-63
2022/01/28 12:51:29;;;;;;;35.85;23.67;;;;;;;3.70;84.73;101808.13;4996196;28;20038;-63
2022/01/28 12:53:55;;;;;;;44.05;25.38;;;;;;;3.71;85.01;101804.78;4996150;28;20481;-63
2022/01/28 12:56:34;;;;;;;40.22;24.55;;;;;;;3.71;84.23;101802.22;5012499;28;20038;-63
2022/01/28 12:59:01;;;;;;;41.05;22.67;;;;;;;3.70;84.65;101800.44;5012287;28;20030;-63
2022/01/28 13:01:27;;;;;;;41.20;25.17;;;;;;;3.71;84.91;101797.09;4995915;28;20041;-64